sensor_id;sensor_type;location;lat;lon;timestamp;P1;durP1;ratioP1;P2;durP2;ratioP2
58978;SDS011;44763;50.464;30.612;2022-08-11T00:01:14;2.83;;;2.62;;
58978;SDS011;44763;50.464;30.612;2022-08-11T00:03:59;4.65;;;2.85;;
58978;SDS011;44763;50.464;30.612;2022-08-11T00:06:25;2.98;;;2.87;;
58978;SDS011;44763;50.464;30.612;2022-08-11T00:08:59;3.40;;;2.55;;
58978;SDS011;44763;50.464;30.612;2022-08-11T00:11:33;4.15;;;2.45;;
58978;SDS011;44763;50.464;30.612;2022-08-11T00:14:20;2.17;;;2.00;;
58978;SDS011;44763;50.464;30.612;2022-08-11T00:16:59;4.20;;;2.70;;
58978;SDS011;44763;50.464;30.612;2022-08-11T00:19:29;3.00;;;2.60;;
58978;SDS011;44763;50.464;30.612;2022-08-11T00:21:59;2.85;;;2.75;;
58978;SDS011;44763;50.464;30.612;2022-08-11T00:24:33;2.33;;;2.22;;
58978;SDS011;44763;50.464;30.612;2022-08-11T00:27:02;3.00;;;2.77;;
58978;SDS011;44763;50.464;30.612;2022-08-11T00:29:31;2.65;;;2.25;;
58978;SDS011;44763;50.464;30.612;2022-08-11T00:31:59;2.17;;;2.08;;
58978;SDS011;44763;50.464;30.612;2022-08-11T00:34:29;5.65;;;2.90;;
58978;SDS011;44763;50.464;30.612;2022-08-11T00:36:59;2.83;;;2.62;;
58978;SDS011;44763;50.464;30.612;2022-08-11T00:39:40;2.25;;;2.15;;
58978;SDS011;44763;50.464;30.612;2022-08-11T00:48:10;2.80;;;2.70;;
58978;SDS011;44763;50.464;30.612;2022-08-11T01:00:11;2.22;;;2.12;;
58978;SDS011;44763;50.464;30.612;2022-08-11T01:02:45;2.33;;;2.17;;
58978;SDS011;44763;50.464;30.612;2022-08-11T01:11:58;2.60;;;2.42;;
58978;SDS011;44763;50.464;30.612;2022-08-11T01:54:30;2.83;;;2.65;;
58978;SDS011;44763;50.464;30.612;2022-08-11T02:00:26;2.58;;;2.22;;
58978;SDS011;44763;50.464;30.612;2022-08-11T02:12:09;2.47;;;2.37;;
58978;SDS011;44763;50.464;30.612;2022-08-11T02:14:48;2.55;;;2.27;;
58978;SDS011;44763;50.464;30.612;2022-08-11T02:17:45;3.40;;;3.10;;
58978;SDS011;44763;50.464;30.612;2022-08-11T02:20:25;2.98;;;2.80;;
58978;SDS011;44763;50.464;30.612;2022-08-11T02:26:32;2.02;;;1.92;;
58978;SDS011;44763;50.464;30.612;2022-08-11T02:35:09;3.12;;;2.92;;
58978;SDS011;44763;50.464;30.612;2022-08-11T02:37:26;4.80;;;2.80;;
58978;SDS011;44763;50.464;30.612;2022-08-11T02:40:07;2.25;;;2.10;;
58978;SDS011;44763;50.464;30.612;2022-08-11T02:48:26;4.97;;;2.95;;
58978;SDS011;44763;50.464;30.612;2022-08-11T02:54:44;3.87;;;3.58;;
58978;SDS011;44763;50.464;30.612;2022-08-11T03:01:18;3.95;;;3.08;;
58978;SDS011;44763;50.464;30.612;2022-08-11T03:03:30;3.05;;;2.95;;
58978;SDS011;44763;50.464;30.612;2022-08-11T03:06:18;5.28;;;3.20;;
58978;SDS011;44763;50.464;30.612;2022-08-11T03:09:05;3.35;;;3.05;;
58978;SDS011;44763;50.464;30.612;2022-08-11T03:11:41;5.45;;;2.87;;
58978;SDS011;44763;50.464;30.612;2022-08-11T03:14:58;3.00;;;2.80;;
58978;SDS011;44763;50.464;30.612;2022-08-11T03:20:53;2.87;;;2.77;;
58978;SDS011;44763;50.464;30.612;2022-08-11T03:26:11;3.95;;;3.00;;
58978;SDS011;44763;50.464;30.612;2022-08-11T03:29:11;2.45;;;2.25;;
58978;SDS011;44763;50.464;30.612;2022-08-11T03:34:45;2.87;;;2.12;;
58978;SDS011;44763;50.464;30.612;2022-08-11T03:37:17;3.15;;;2.95;;
58978;SDS011;44763;50.464;30.612;2022-08-11T04:10:31;2.77;;;2.67;;
58978;SDS011;44763;50.464;30.612;2022-08-11T04:16:40;3.40;;;3.15;;
58978;SDS011;44763;50.464;30.612;2022-08-11T04:25:22;3.70;;;3.40;;
58978;SDS011;44763;50.464;30.612;2022-08-11T04:34:24;4.50;;;4.10;;
58978;SDS011;44763;50.464;30.612;2022-08-11T04:46:30;4.30;;;4.00;;
58978;SDS011;44763;50.464;30.612;2022-08-11T05:13:48;11.20;;;5.47;;
58978;SDS011;44763;50.464;30.612;2022-08-11T05:19:38;5.20;;;4.80;;
58978;SDS011;44763;50.464;30.612;2022-08-11T05:22:27;5.33;;;4.92;;
58978;SDS011;44763;50.464;30.612;2022-08-11T05:25:19;6.17;;;5.12;;
58978;SDS011;44763;50.464;30.612;2022-08-11T05:28:15;5.70;;;5.22;;
58978;SDS011;44763;50.464;30.612;2022-08-11T05:31:32;5.33;;;4.83;;
58978;SDS011;44763;50.464;30.612;2022-08-11T05:34:40;4.92;;;4.42;;
58978;SDS011;44763;50.464;30.612;2022-08-11T05:42:58;6.10;;;5.70;;
58978;SDS011;44763;50.464;30.612;2022-08-11T05:46:04;5.35;;;5.05;;
58978;SDS011;44763;50.464;30.612;2022-08-11T05:48:51;6.53;;;6.00;;
58978;SDS011;44763;50.464;30.612;2022-08-11T05:51:38;5.58;;;5.03;;
58978;SDS011;44763;50.464;30.612;2022-08-11T05:54:27;7.65;;;7.15;;
58978;SDS011;44763;50.464;30.612;2022-08-11T05:57:19;5.92;;;4.92;;
58978;SDS011;44763;50.464;30.612;2022-08-11T05:59:56;5.75;;;5.25;;
58978;SDS011;44763;50.464;30.612;2022-08-11T06:02:24;4.75;;;4.45;;
58978;SDS011;44763;50.464;30.612;2022-08-11T06:04:59;10.43;;;5.53;;
58978;SDS011;44763;50.464;30.612;2022-08-11T06:07:31;5.70;;;5.25;;
58978;SDS011;44763;50.464;30.612;2022-08-11T06:09:58;6.03;;;5.45;;
58978;SDS011;44763;50.464;30.612;2022-08-11T06:12:25;5.58;;;4.85;;
58978;SDS011;44763;50.464;30.612;2022-08-11T06:15:03;5.05;;;4.62;;
58978;SDS011;44763;50.464;30.612;2022-08-11T06:17:31;6.30;;;4.42;;
58978;SDS011;44763;50.464;30.612;2022-08-11T06:20:02;5.17;;;3.95;;
58978;SDS011;44763;50.464;30.612;2022-08-11T06:22:33;4.85;;;3.33;;
58978;SDS011;44763;50.464;30.612;2022-08-11T06:25:00;4.53;;;4.33;;
58978;SDS011;44763;50.464;30.612;2022-08-11T06:27:30;4.47;;;4.17;;
58978;SDS011;44763;50.464;30.612;2022-08-11T06:29:59;4.08;;;3.70;;
58978;SDS011;44763;50.464;30.612;2022-08-11T06:32:30;3.77;;;3.58;;
58978;SDS011;44763;50.464;30.612;2022-08-11T06:35:06;4.12;;;3.83;;
58978;SDS011;44763;50.464;30.612;2022-08-11T06:40:37;6.05;;;5.45;;
58978;SDS011;44763;50.464;30.612;2022-08-11T06:43:51;5.97;;;3.77;;
58978;SDS011;44763;50.464;30.612;2022-08-11T06:46:30;3.65;;;3.42;;
58978;SDS011;44763;50.464;30.612;2022-08-11T06:49:09;4.15;;;3.85;;
58978;SDS011;44763;50.464;30.612;2022-08-11T06:51:56;3.42;;;3.22;;
58978;SDS011;44763;50.464;30.612;2022-08-11T06:54:32;7.15;;;3.95;;
58978;SDS011;44763;50.464;30.612;2022-08-11T06:57:02;4.40;;;3.15;;
58978;SDS011;44763;50.464;30.612;2022-08-11T06:59:49;3.20;;;2.90;;
58978;SDS011;44763;50.464;30.612;2022-08-11T07:02:37;2.98;;;2.77;;
58978;SDS011;44763;50.464;30.612;2022-08-11T07:14:32;4.30;;;3.50;;
58978;SDS011;44763;50.464;30.612;2022-08-11T07:17:22;4.78;;;3.02;;
58978;SDS011;44763;50.464;30.612;2022-08-11T07:19:54;4.62;;;3.15;;
58978;SDS011;44763;50.464;30.612;2022-08-11T07:22:42;2.85;;;2.75;;
58978;SDS011;44763;50.464;30.612;2022-08-11T07:25:32;3.75;;;3.42;;
58978;SDS011;44763;50.464;30.612;2022-08-11T07:28:27;3.80;;;3.58;;
58978;SDS011;44763;50.464;30.612;2022-08-11T07:31:13;4.67;;;3.40;;
58978;SDS011;44763;50.464;30.612;2022-08-11T07:33:46;4.62;;;4.33;;
58978;SDS011;44763;50.464;30.612;2022-08-11T07:36:16;5.97;;;5.42;;
58978;SDS011;44763;50.464;30.612;2022-08-11T07:38:45;5.03;;;4.72;;
58978;SDS011;44763;50.464;30.612;2022-08-11T07:41:17;5.72;;;4.40;;
58978;SDS011;44763;50.464;30.612;2022-08-11T07:43:48;5.47;;;4.95;;
58978;SDS011;44763;50.464;30.612;2022-08-11T07:46:17;4.83;;;4.47;;
58978;SDS011;44763;50.464;30.612;2022-08-11T07:49:02;4.45;;;4.15;;
58978;SDS011;44763;50.464;30.612;2022-08-11T07:51:50;4.12;;;3.92;;
58978;SDS011;44763;50.464;30.612;2022-08-11T07:54:38;4.17;;;3.52;;
58978;SDS011;44763;50.464;30.612;2022-08-11T07:57:09;3.75;;;3.52;;
58978;SDS011;44763;50.464;30.612;2022-08-11T07:59:55;4.40;;;4.10;;
58978;SDS011;44763;50.464;30.612;2022-08-11T08:02:42;3.83;;;3.58;;
58978;SDS011;44763;50.464;30.612;2022-08-11T08:05:28;4.53;;;4.28;;
58978;SDS011;44763;50.464;30.612;2022-08-11T08:08:14;4.15;;;3.95;;
58978;SDS011;44763;50.464;30.612;2022-08-11T08:10:59;4.28;;;4.00;;
58978;SDS011;44763;50.464;30.612;2022-08-11T08:13:44;4.78;;;4.37;;
58978;SDS011;44763;50.464;30.612;2022-08-11T08:16:30;5.65;;;4.28;;
58978;SDS011;44763;50.464;30.612;2022-08-11T08:19:16;7.03;;;5.30;;
58978;SDS011;44763;50.464;30.612;2022-08-11T08:21:45;4.55;;;4.17;;
58978;SDS011;44763;50.464;30.612;2022-08-11T08:24:12;3.55;;;3.35;;
58978;SDS011;44763;50.464;30.612;2022-08-11T08:26:40;3.37;;;3.27;;
58978;SDS011;44763;50.464;30.612;2022-08-11T08:29:23;2.72;;;2.52;;
58978;SDS011;44763;50.464;30.612;2022-08-11T08:32:17;2.50;;;2.40;;
58978;SDS011;44763;50.464;30.612;2022-08-11T08:34:48;2.47;;;2.25;;
58978;SDS011;44763;50.464;30.612;2022-08-11T08:37:19;2.90;;;2.47;;
58978;SDS011;44763;50.464;30.612;2022-08-11T08:39:48;2.12;;;2.02;;
58978;SDS011;44763;50.464;30.612;2022-08-11T08:42:36;2.15;;;2.10;;
58978;SDS011;44763;50.464;30.612;2022-08-11T08:45:01;2.33;;;2.22;;
58978;SDS011;44763;50.464;30.612;2022-08-11T08:47:44;3.10;;;1.50;;
58978;SDS011;44763;50.464;30.612;2022-08-11T08:50:15;1.50;;;1.40;;
58978;SDS011;44763;50.464;30.612;2022-08-11T08:52:46;2.35;;;2.12;;
58978;SDS011;44763;50.464;30.612;2022-08-11T08:55:24;4.90;;;1.70;;
58978;SDS011;44763;50.464;30.612;2022-08-11T08:57:53;2.70;;;2.60;;
58978;SDS011;44763;50.464;30.612;2022-08-11T09:00:23;2.12;;;2.02;;
58978;SDS011;44763;50.464;30.612;2022-08-11T09:02:49;2.62;;;2.55;;
58978;SDS011;44763;50.464;30.612;2022-08-11T09:05:17;2.37;;;2.27;;
58978;SDS011;44763;50.464;30.612;2022-08-11T09:07:44;2.70;;;2.40;;
58978;SDS011;44763;50.464;30.612;2022-08-11T09:10:16;3.70;;;3.47;;
58978;SDS011;44763;50.464;30.612;2022-08-11T09:12:44;3.37;;;3.17;;
58978;SDS011;44763;50.464;30.612;2022-08-11T09:15:12;3.65;;;3.47;;
58978;SDS011;44763;50.464;30.612;2022-08-11T09:17:44;3.95;;;3.70;;
58978;SDS011;44763;50.464;30.612;2022-08-11T09:20:18;3.47;;;3.35;;
58978;SDS011;44763;50.464;30.612;2022-08-11T09:22:47;3.65;;;3.35;;
58978;SDS011;44763;50.464;30.612;2022-08-11T09:25:33;3.77;;;3.52;;
58978;SDS011;44763;50.464;30.612;2022-08-11T09:28:19;3.87;;;3.67;;
58978;SDS011;44763;50.464;30.612;2022-08-11T09:30:48;4.37;;;3.12;;
58978;SDS011;44763;50.464;30.612;2022-08-11T09:33:20;3.40;;;3.30;;
58978;SDS011;44763;50.464;30.612;2022-08-11T09:35:48;3.67;;;3.00;;
58978;SDS011;44763;50.464;30.612;2022-08-11T09:38:18;3.00;;;2.90;;
58978;SDS011;44763;50.464;30.612;2022-08-11T09:41:07;3.67;;;3.45;;
58978;SDS011;44763;50.464;30.612;2022-08-11T09:43:35;5.33;;;4.80;;
58978;SDS011;44763;50.464;30.612;2022-08-11T09:46:24;4.00;;;3.77;;
58978;SDS011;44763;50.464;30.612;2022-08-11T09:48:54;3.27;;;3.17;;
58978;SDS011;44763;50.464;30.612;2022-08-11T09:51:25;4.53;;;4.33;;
58978;SDS011;44763;50.464;30.612;2022-08-11T09:53:55;3.40;;;3.20;;
58978;SDS011;44763;50.464;30.612;2022-08-11T09:56:29;3.02;;;2.83;;
58978;SDS011;44763;50.464;30.612;2022-08-11T09:59:16;3.30;;;3.10;;
58978;SDS011;44763;50.464;30.612;2022-08-11T10:01:45;3.25;;;3.05;;
58978;SDS011;44763;50.464;30.612;2022-08-11T10:04:15;2.67;;;2.58;;
58978;SDS011;44763;50.464;30.612;2022-08-11T10:06:51;3.33;;;3.05;;
58978;SDS011;44763;50.464;30.612;2022-08-11T10:09:37;3.72;;;3.62;;
58978;SDS011;44763;50.464;30.612;2022-08-11T10:12:27;3.40;;;3.25;;
58978;SDS011;44763;50.464;30.612;2022-08-11T10:15:04;3.70;;;3.52;;
58978;SDS011;44763;50.464;30.612;2022-08-11T10:17:54;3.30;;;3.05;;
58978;SDS011;44763;50.464;30.612;2022-08-11T10:20:41;3.45;;;3.35;;
58978;SDS011;44763;50.464;30.612;2022-08-11T10:23:14;3.15;;;3.05;;
58978;SDS011;44763;50.464;30.612;2022-08-11T10:25:59;4.05;;;3.72;;
58978;SDS011;44763;50.464;30.612;2022-08-11T10:28:45;3.17;;;3.08;;
58978;SDS011;44763;50.464;30.612;2022-08-11T10:31:11;3.62;;;3.20;;
58978;SDS011;44763;50.464;30.612;2022-08-11T10:33:57;3.80;;;3.58;;
58978;SDS011;44763;50.464;30.612;2022-08-11T10:37:29;4.00;;;3.80;;
58978;SDS011;44763;50.464;30.612;2022-08-11T10:39:58;3.92;;;3.75;;
58978;SDS011;44763;50.464;30.612;2022-08-11T10:42:26;2.72;;;2.52;;
58978;SDS011;44763;50.464;30.612;2022-08-11T10:45:11;3.60;;;3.40;;
58978;SDS011;44763;50.464;30.612;2022-08-11T10:47:58;3.80;;;3.60;;
58978;SDS011;44763;50.464;30.612;2022-08-11T10:50:25;3.72;;;3.62;;
58978;SDS011;44763;50.464;30.612;2022-08-11T10:53:10;4.70;;;3.42;;
58978;SDS011;44763;50.464;30.612;2022-08-11T10:55:57;3.55;;;3.45;;
58978;SDS011;44763;50.464;30.612;2022-08-11T10:58:44;2.90;;;2.80;;
58978;SDS011;44763;50.464;30.612;2022-08-11T11:01:20;4.47;;;4.08;;
58978;SDS011;44763;50.464;30.612;2022-08-11T11:03:49;5.00;;;4.70;;
58978;SDS011;44763;50.464;30.612;2022-08-11T11:06:28;4.03;;;3.83;;
58978;SDS011;44763;50.464;30.612;2022-08-11T11:09:27;3.58;;;3.30;;
58978;SDS011;44763;50.464;30.612;2022-08-11T11:12:02;3.30;;;3.20;;
58978;SDS011;44763;50.464;30.612;2022-08-11T11:14:52;3.87;;;3.65;;
58978;SDS011;44763;50.464;30.612;2022-08-11T11:17:51;4.05;;;3.52;;
58978;SDS011;44763;50.464;30.612;2022-08-11T11:20:23;3.67;;;3.47;;
58978;SDS011;44763;50.464;30.612;2022-08-11T11:23:06;3.60;;;3.40;;
58978;SDS011;44763;50.464;30.612;2022-08-11T11:26:00;3.83;;;3.52;;
58978;SDS011;44763;50.464;30.612;2022-08-11T11:28:34;3.27;;;3.17;;
58978;SDS011;44763;50.464;30.612;2022-08-11T11:37:24;4.10;;;3.90;;
58978;SDS011;44763;50.464;30.612;2022-08-11T11:39:51;3.40;;;3.30;;
58978;SDS011;44763;50.464;30.612;2022-08-11T11:42:19;3.33;;;3.15;;
58978;SDS011;44763;50.464;30.612;2022-08-11T11:44:46;3.65;;;3.45;;
58978;SDS011;44763;50.464;30.612;2022-08-11T11:47:13;3.10;;;3.00;;
58978;SDS011;44763;50.464;30.612;2022-08-11T11:49:43;3.22;;;3.02;;
58978;SDS011;44763;50.464;30.612;2022-08-11T11:52:14;3.37;;;3.17;;
58978;SDS011;44763;50.464;30.612;2022-08-11T11:54:44;3.72;;;3.52;;
58978;SDS011;44763;50.464;30.612;2022-08-11T11:57:15;3.42;;;3.17;;
58978;SDS011;44763;50.464;30.612;2022-08-11T12:00:04;4.12;;;3.95;;
58978;SDS011;44763;50.464;30.612;2022-08-11T12:02:52;2.42;;;2.40;;
58978;SDS011;44763;50.464;30.612;2022-08-11T12:05:21;3.77;;;3.65;;
58978;SDS011;44763;50.464;30.612;2022-08-11T12:07:47;3.25;;;3.10;;
58978;SDS011;44763;50.464;30.612;2022-08-11T12:10:32;3.65;;;3.55;;
58978;SDS011;44763;50.464;30.612;2022-08-11T12:13:00;3.58;;;3.37;;
58978;SDS011;44763;50.464;30.612;2022-08-11T12:15:46;3.98;;;3.87;;
58978;SDS011;44763;50.464;30.612;2022-08-11T12:18:13;4.20;;;4.00;;
58978;SDS011;44763;50.464;30.612;2022-08-11T12:20:41;4.80;;;4.40;;
58978;SDS011;44763;50.464;30.612;2022-08-11T12:23:09;3.52;;;3.42;;
58978;SDS011;44763;50.464;30.612;2022-08-11T12:25:57;3.35;;;3.25;;
58978;SDS011;44763;50.464;30.612;2022-08-11T12:28:43;3.08;;;2.98;;
58978;SDS011;44763;50.464;30.612;2022-08-11T12:31:10;4.17;;;3.90;;
58978;SDS011;44763;50.464;30.612;2022-08-11T12:33:38;3.75;;;3.55;;
58978;SDS011;44763;50.464;30.612;2022-08-11T12:36:08;4.05;;;3.85;;
58978;SDS011;44763;50.464;30.612;2022-08-11T12:38:39;3.80;;;3.58;;
58978;SDS011;44763;50.464;30.612;2022-08-11T12:41:07;3.80;;;3.60;;
58978;SDS011;44763;50.464;30.612;2022-08-11T12:43:51;3.40;;;3.20;;
58978;SDS011;44763;50.464;30.612;2022-08-11T12:46:36;4.25;;;4.05;;
58978;SDS011;44763;50.464;30.612;2022-08-11T12:49:13;4.67;;;4.45;;
58978;SDS011;44763;50.464;30.612;2022-08-11T12:52:07;6.22;;;5.62;;
58978;SDS011;44763;50.464;30.612;2022-08-11T12:54:45;4.67;;;4.35;;
58978;SDS011;44763;50.464;30.612;2022-08-11T12:57:24;5.75;;;5.45;;
58978;SDS011;44763;50.464;30.612;2022-08-11T13:00:17;4.72;;;4.42;;
58978;SDS011;44763;50.464;30.612;2022-08-11T13:03:02;4.45;;;4.25;;
58978;SDS011;44763;50.464;30.612;2022-08-11T13:05:52;4.60;;;4.20;;
58978;SDS011;44763;50.464;30.612;2022-08-11T13:08:22;4.60;;;4.22;;
58978;SDS011;44763;50.464;30.612;2022-08-11T13:10:50;4.65;;;4.45;;
58978;SDS011;44763;50.464;30.612;2022-08-11T13:13:37;5.33;;;5.03;;
58978;SDS011;44763;50.464;30.612;2022-08-11T13:16:05;5.55;;;5.15;;
58978;SDS011;44763;50.464;30.612;2022-08-11T13:18:32;5.67;;;5.15;;
58978;SDS011;44763;50.464;30.612;2022-08-11T13:20:59;5.58;;;5.37;;
58978;SDS011;44763;50.464;30.612;2022-08-11T13:23:25;5.30;;;5.10;;
58978;SDS011;44763;50.464;30.612;2022-08-11T13:25:54;5.28;;;5.08;;
58978;SDS011;44763;50.464;30.612;2022-08-11T13:28:21;5.67;;;5.22;;
58978;SDS011;44763;50.464;30.612;2022-08-11T13:30:48;5.80;;;5.50;;
58978;SDS011;44763;50.464;30.612;2022-08-11T13:33:49;5.87;;;5.60;;
58978;SDS011;44763;50.464;30.612;2022-08-11T13:36:17;5.58;;;5.25;;
58978;SDS011;44763;50.464;30.612;2022-08-11T13:38:46;6.45;;;5.85;;
58978;SDS011;44763;50.464;30.612;2022-08-11T13:41:14;5.47;;;5.17;;
58978;SDS011;44763;50.464;30.612;2022-08-11T13:44:01;6.62;;;6.12;;
58978;SDS011;44763;50.464;30.612;2022-08-11T13:46:38;6.70;;;6.20;;
58978;SDS011;44763;50.464;30.612;2022-08-11T13:49:05;7.20;;;6.55;;
58978;SDS011;44763;50.464;30.612;2022-08-11T13:51:34;6.70;;;6.12;;
58978;SDS011;44763;50.464;30.612;2022-08-11T13:54:15;5.42;;;5.22;;
58978;SDS011;44763;50.464;30.612;2022-08-11T13:56:46;8.83;;;6.47;;
58978;SDS011;44763;50.464;30.612;2022-08-11T13:59:17;6.95;;;6.45;;
58978;SDS011;44763;50.464;30.612;2022-08-11T14:01:47;5.40;;;5.20;;
58978;SDS011;44763;50.464;30.612;2022-08-11T14:04:25;11.10;;;5.95;;
58978;SDS011;44763;50.464;30.612;2022-08-11T14:06:53;7.20;;;6.78;;
58978;SDS011;44763;50.464;30.612;2022-08-11T14:09:24;6.25;;;5.97;;
58978;SDS011;44763;50.464;30.612;2022-08-11T14:12:01;6.30;;;5.90;;
58978;SDS011;44763;50.464;30.612;2022-08-11T14:15:06;5.83;;;5.45;;
58978;SDS011;44763;50.464;30.612;2022-08-11T14:17:46;6.50;;;6.15;;
58978;SDS011;44763;50.464;30.612;2022-08-11T14:20:26;6.53;;;6.12;;
58978;SDS011;44763;50.464;30.612;2022-08-11T14:23:14;6.50;;;6.08;;
58978;SDS011;44763;50.464;30.612;2022-08-11T14:25:41;7.03;;;6.42;;
58978;SDS011;44763;50.464;30.612;2022-08-11T14:28:10;9.20;;;8.60;;
58978;SDS011;44763;50.464;30.612;2022-08-11T14:30:36;8.13;;;7.72;;
58978;SDS011;44763;50.464;30.612;2022-08-11T14:33:20;8.35;;;7.75;;
58978;SDS011;44763;50.464;30.612;2022-08-11T14:35:47;6.87;;;6.22;;
58978;SDS011;44763;50.464;30.612;2022-08-11T14:38:14;6.47;;;6.08;;
58978;SDS011;44763;50.464;30.612;2022-08-11T14:40:42;6.50;;;6.08;;
58978;SDS011;44763;50.464;30.612;2022-08-11T14:43:27;6.87;;;6.17;;
58978;SDS011;44763;50.464;30.612;2022-08-11T14:46:12;5.78;;;5.47;;
58978;SDS011;44763;50.464;30.612;2022-08-11T14:48:57;6.70;;;6.10;;
58978;SDS011;44763;50.464;30.612;2022-08-11T14:51:24;5.72;;;5.35;;
58978;SDS011;44763;50.464;30.612;2022-08-11T14:53:51;6.83;;;6.33;;
58978;SDS011;44763;50.464;30.612;2022-08-11T14:56:19;7.33;;;6.22;;
58978;SDS011;44763;50.464;30.612;2022-08-11T14:59:01;6.47;;;6.10;;
58978;SDS011;44763;50.464;30.612;2022-08-11T15:01:28;6.47;;;6.08;;
58978;SDS011;44763;50.464;30.612;2022-08-11T15:04:12;6.03;;;5.72;;
58978;SDS011;44763;50.464;30.612;2022-08-11T15:06:39;6.33;;;6.03;;
58978;SDS011;44763;50.464;30.612;2022-08-11T15:09:05;6.33;;;5.95;;
58978;SDS011;44763;50.464;30.612;2022-08-11T15:11:32;5.80;;;5.50;;
58978;SDS011;44763;50.464;30.612;2022-08-11T15:14:17;6.15;;;5.83;;
58978;SDS011;44763;50.464;30.612;2022-08-11T15:16:46;8.25;;;6.40;;
58978;SDS011;44763;50.464;30.612;2022-08-11T15:19:31;5.90;;;5.60;;
58978;SDS011;44763;50.464;30.612;2022-08-11T15:21:59;6.40;;;5.92;;
58978;SDS011;44763;50.464;30.612;2022-08-11T15:24:44;6.42;;;6.03;;
58978;SDS011;44763;50.464;30.612;2022-08-11T15:27:15;6.58;;;6.25;;
58978;SDS011;44763;50.464;30.612;2022-08-11T15:30:03;5.92;;;5.62;;
58978;SDS011;44763;50.464;30.612;2022-08-11T15:32:49;6.00;;;5.65;;
58978;SDS011;44763;50.464;30.612;2022-08-11T15:35:35;6.33;;;6.00;;
58978;SDS011;44763;50.464;30.612;2022-08-11T15:38:21;5.45;;;5.17;;
58978;SDS011;44763;50.464;30.612;2022-08-11T15:40:48;5.83;;;5.28;;
58978;SDS011;44763;50.464;30.612;2022-08-11T15:43:41;8.70;;;5.70;;
58978;SDS011;44763;50.464;30.612;2022-08-11T15:46:34;5.08;;;4.85;;
58978;SDS011;44763;50.464;30.612;2022-08-11T15:49:08;8.63;;;5.92;;
58978;SDS011;44763;50.464;30.612;2022-08-11T15:51:41;5.83;;;5.45;;
58978;SDS011;44763;50.464;30.612;2022-08-11T15:54:25;5.35;;;5.10;;
58978;SDS011;44763;50.464;30.612;2022-08-11T15:56:55;6.05;;;5.53;;
58978;SDS011;44763;50.464;30.612;2022-08-11T15:59:26;6.58;;;4.85;;
58978;SDS011;44763;50.464;30.612;2022-08-11T16:02:14;6.25;;;5.70;;
58978;SDS011;44763;50.464;30.612;2022-08-11T16:05:05;5.60;;;5.15;;
58978;SDS011;44763;50.464;30.612;2022-08-11T16:07:34;5.78;;;5.30;;
58978;SDS011;44763;50.464;30.612;2022-08-11T16:10:12;5.65;;;5.20;;
58978;SDS011;44763;50.464;30.612;2022-08-11T16:12:56;5.80;;;5.45;;
58978;SDS011;44763;50.464;30.612;2022-08-11T16:18:22;5.45;;;5.15;;
58978;SDS011;44763;50.464;30.612;2022-08-11T16:20:53;6.03;;;5.47;;
58978;SDS011;44763;50.464;30.612;2022-08-11T16:23:22;5.45;;;5.25;;
58978;SDS011;44763;50.464;30.612;2022-08-11T16:25:51;6.22;;;5.78;;
58978;SDS011;44763;50.464;30.612;2022-08-11T16:28:20;5.70;;;5.30;;
58978;SDS011;44763;50.464;30.612;2022-08-11T16:30:48;5.35;;;4.97;;
58978;SDS011;44763;50.464;30.612;2022-08-11T16:33:15;5.80;;;5.45;;
58978;SDS011;44763;50.464;30.612;2022-08-11T16:35:43;5.40;;;5.10;;
58978;SDS011;44763;50.464;30.612;2022-08-11T16:38:28;5.12;;;4.62;;
58978;SDS011;44763;50.464;30.612;2022-08-11T16:41:02;6.00;;;5.70;;
58978;SDS011;44763;50.464;30.612;2022-08-11T16:43:31;5.40;;;5.10;;
58978;SDS011;44763;50.464;30.612;2022-08-11T16:46:20;6.15;;;5.75;;
58978;SDS011;44763;50.464;30.612;2022-08-11T16:49:09;6.10;;;5.70;;
58978;SDS011;44763;50.464;30.612;2022-08-11T16:51:43;5.15;;;4.85;;
58978;SDS011;44763;50.464;30.612;2022-08-11T16:54:10;5.20;;;4.80;;
58978;SDS011;44763;50.464;30.612;2022-08-11T16:56:48;6.03;;;5.55;;
58978;SDS011;44763;50.464;30.612;2022-08-11T16:59:26;6.20;;;5.83;;
58978;SDS011;44763;50.464;30.612;2022-08-11T17:07:30;5.37;;;5.05;;
58978;SDS011;44763;50.464;30.612;2022-08-11T17:10:20;6.15;;;5.85;;
58978;SDS011;44763;50.464;30.612;2022-08-11T17:13:08;5.50;;;4.92;;
58978;SDS011;44763;50.464;30.612;2022-08-11T17:15:45;5.40;;;5.10;;
58978;SDS011;44763;50.464;30.612;2022-08-11T17:21:13;5.95;;;5.05;;
58978;SDS011;44763;50.464;30.612;2022-08-11T17:23:47;5.25;;;5.05;;
58978;SDS011;44763;50.464;30.612;2022-08-11T17:26:20;6.15;;;5.55;;
58978;SDS011;44763;50.464;30.612;2022-08-11T17:32:04;5.83;;;5.33;;
58978;SDS011;44763;50.464;30.612;2022-08-11T17:34:54;5.22;;;4.92;;
58978;SDS011;44763;50.464;30.612;2022-08-11T17:37:45;5.12;;;4.78;;
58978;SDS011;44763;50.464;30.612;2022-08-11T17:40:14;5.85;;;5.42;;
58978;SDS011;44763;50.464;30.612;2022-08-11T17:42:47;5.97;;;5.47;;
58978;SDS011;44763;50.464;30.612;2022-08-11T17:45:32;5.08;;;4.78;;
58978;SDS011;44763;50.464;30.612;2022-08-11T17:48:17;4.65;;;4.45;;
58978;SDS011;44763;50.464;30.612;2022-08-11T17:50:51;4.62;;;4.40;;
58978;SDS011;44763;50.464;30.612;2022-08-11T17:53:23;5.05;;;4.75;;
58978;SDS011;44763;50.464;30.612;2022-08-11T17:56:10;4.80;;;4.47;;
58978;SDS011;44763;50.464;30.612;2022-08-11T17:58:42;5.25;;;4.85;;
58978;SDS011;44763;50.464;30.612;2022-08-11T18:01:28;5.80;;;4.75;;
58978;SDS011;44763;50.464;30.612;2022-08-11T18:03:58;5.28;;;4.95;;
58978;SDS011;44763;50.464;30.612;2022-08-11T18:06:27;5.28;;;4.97;;
58978;SDS011;44763;50.464;30.612;2022-08-11T18:08:56;5.42;;;5.10;;
58978;SDS011;44763;50.464;30.612;2022-08-11T18:11:42;4.83;;;4.50;;
58978;SDS011;44763;50.464;30.612;2022-08-11T18:14:31;5.20;;;4.53;;
58978;SDS011;44763;50.464;30.612;2022-08-11T18:17:19;5.00;;;4.70;;
58978;SDS011;44763;50.464;30.612;2022-08-11T18:20:04;5.85;;;5.40;;
58978;SDS011;44763;50.464;30.612;2022-08-11T18:22:50;6.00;;;5.40;;
58978;SDS011;44763;50.464;30.612;2022-08-11T18:25:38;4.70;;;4.40;;
58978;SDS011;44763;50.464;30.612;2022-08-11T18:28:28;5.00;;;4.60;;
58978;SDS011;44763;50.464;30.612;2022-08-11T18:31:16;5.55;;;5.05;;
58978;SDS011;44763;50.464;30.612;2022-08-11T18:34:04;5.65;;;5.15;;
58978;SDS011;44763;50.464;30.612;2022-08-11T18:36:59;4.67;;;4.45;;
58978;SDS011;44763;50.464;30.612;2022-08-11T18:40:01;5.92;;;5.33;;
58978;SDS011;44763;50.464;30.612;2022-08-11T18:42:52;4.80;;;4.40;;
58978;SDS011;44763;50.464;30.612;2022-08-11T18:45:43;5.22;;;4.83;;
58978;SDS011;44763;50.464;30.612;2022-08-11T18:48:32;5.95;;;5.45;;
58978;SDS011;44763;50.464;30.612;2022-08-11T18:51:19;6.50;;;4.97;;
58978;SDS011;44763;50.464;30.612;2022-08-11T18:54:06;4.75;;;4.55;;
58978;SDS011;44763;50.464;30.612;2022-08-11T18:56:54;5.53;;;5.17;;
58978;SDS011;44763;50.464;30.612;2022-08-11T18:59:41;5.10;;;4.80;;
58978;SDS011;44763;50.464;30.612;2022-08-11T19:02:33;4.90;;;4.60;;
58978;SDS011;44763;50.464;30.612;2022-08-11T19:05:20;4.80;;;4.40;;
58978;SDS011;44763;50.464;30.612;2022-08-11T19:08:05;5.40;;;4.95;;
58978;SDS011;44763;50.464;30.612;2022-08-11T19:10:52;5.78;;;5.28;;
58978;SDS011;44763;50.464;30.612;2022-08-11T19:13:39;4.85;;;4.65;;
58978;SDS011;44763;50.464;30.612;2022-08-11T19:16:27;5.97;;;5.50;;
58978;SDS011;44763;50.464;30.612;2022-08-11T19:19:13;4.53;;;4.28;;
58978;SDS011;44763;50.464;30.612;2022-08-11T19:21:59;5.22;;;4.92;;
58978;SDS011;44763;50.464;30.612;2022-08-11T19:24:46;5.85;;;5.42;;
58978;SDS011;44763;50.464;30.612;2022-08-11T19:27:33;5.78;;;5.37;;